createdAt,value
2019-05-17T00:00:47.456Z,9.05
2019-05-17T00:03:18.671Z,9.13
2019-05-17T00:05:48.048Z,9.48
2019-05-17T00:08:30.837Z,9.40
2019-05-17T00:10:48.337Z,9.70
2019-05-17T00:13:17.609Z,10.23
2019-05-17T00:15:47.447Z,9.10
2019-05-17T00:18:17.276Z,9.80
2019-05-17T00:20:47.657Z,10.15
2019-05-17T00:23:17.489Z,10.00
2019-05-17T00:25:48.425Z,10.60
2019-05-17T00:28:17.697Z,9.88
2019-05-17T00:30:47.080Z,9.85
2019-05-17T00:33:16.983Z,11.03
2019-05-17T00:35:46.996Z,10.60
2019-05-17T00:38:16.990Z,10.20
2019-05-17T00:40:47.049Z,10.35
2019-05-17T00:43:17.010Z,10.98
2019-05-17T00:45:46.924Z,10.60
2019-05-17T00:48:17.387Z,10.30
2019-05-17T00:50:53.340Z,10.30
2019-05-17T00:53:17.700Z,9.80
2019-05-17T00:55:48.518Z,9.60
2019-05-17T00:58:17.790Z,10.03
2019-05-17T01:00:47.944Z,9.78
2019-05-17T01:03:17.404Z,10.40
2019-05-17T01:05:47.361Z,10.28
2019-05-17T01:08:17.433Z,10.13
2019-05-17T01:10:47.375Z,10.25
2019-05-17T01:13:17.477Z,10.30
2019-05-17T01:15:47.541Z,11.10
2019-05-17T01:18:16.868Z,10.78
2019-05-17T01:20:47.424Z,10.68
2019-05-17T01:23:17.987Z,11.13
2019-05-17T01:25:48.156Z,11.50
2019-05-17T01:28:17.579Z,11.40
2019-05-17T01:30:46.851Z,12.15
2019-05-17T01:33:17.343Z,11.68
2019-05-17T01:35:46.779Z,12.10
2019-05-17T01:38:17.770Z,13.13
2019-05-17T01:40:47.272Z,12.78
2019-05-17T01:43:16.767Z,13.93
2019-05-17T01:45:48.001Z,13.70
2019-05-17T01:48:17.100Z,14.05
2019-05-17T01:50:46.582Z,13.80
2019-05-17T01:53:16.622Z,14.43
2019-05-17T01:55:46.667Z,15.48
2019-05-17T01:58:17.271Z,15.10
2019-05-17T02:00:46.691Z,16.45
2019-05-17T02:03:17.383Z,16.02
2019-05-17T02:05:47.352Z,16.65
2019-05-17T02:08:17.159Z,16.93
2019-05-17T02:10:47.673Z,17.17
2019-05-17T02:13:16.995Z,18.48
2019-05-17T02:15:46.973Z,18.12
2019-05-17T02:18:17.357Z,19.12
2019-05-17T02:20:46.806Z,20.52
2019-05-17T02:23:17.429Z,21.60
2019-05-17T02:25:47.933Z,21.27
2019-05-17T02:28:17.215Z,22.58
2019-05-17T02:30:46.601Z,23.00
2019-05-17T02:33:15.871Z,23.42
2019-05-17T02:35:45.259Z,23.45
2019-05-17T02:38:14.548Z,24.10
2019-05-17T02:40:43.848Z,23.92
2019-05-17T02:43:13.445Z,24.27
2019-05-17T02:45:43.581Z,23.92
2019-05-17T02:48:13.558Z,24.37
2019-05-17T02:50:47.780Z,24.37
2019-05-17T02:53:15.323Z,25.37
2019-05-17T02:55:44.615Z,25.05
2019-05-17T02:58:13.939Z,26.12
2019-05-17T03:00:44.789Z,25.82
2019-05-17T03:03:14.087Z,26.82
2019-05-17T03:05:43.693Z,25.55
2019-05-17T03:08:12.987Z,25.60
2019-05-17T03:10:43.226Z,26.07
2019-05-17T03:13:15.355Z,26.20
2019-05-17T03:15:43.737Z,26.97
2019-05-17T03:18:13.600Z,25.95
2019-05-17T03:20:43.420Z,26.65
2019-05-17T03:23:12.915Z,27.62
2019-05-17T03:25:44.081Z,27.85
2019-05-17T03:28:13.577Z,27.80
2019-05-17T03:30:46.786Z,27.32
2019-05-17T03:33:16.431Z,27.60
2019-05-17T03:35:47.858Z,28.62
2019-05-17T03:38:17.151Z,27.20
2019-05-17T03:41:07.473Z,26.23
2019-05-17T03:43:17.494Z,28.12
2019-05-17T03:45:46.925Z,27.82
2019-05-17T03:48:16.324Z,25.70
2019-05-17T03:50:45.604Z,27.13
2019-05-17T03:53:14.918Z,27.15
2019-05-17T03:55:44.192Z,28.02
2019-05-17T03:58:13.557Z,27.32
2019-05-17T04:00:43.047Z,27.77
2019-05-17T04:03:13.565Z,27.82
2019-05-17T04:05:43.296Z,28.20
2019-05-17T04:08:13.943Z,29.27
2019-05-17T04:10:43.606Z,29.42
2019-05-17T04:13:13.205Z,28.00
2019-05-17T04:15:43.354Z,29.20
2019-05-17T04:18:13.342Z,28.60
2019-05-17T04:20:43.778Z,28.55
2019-05-17T04:23:13.211Z,29.52
2019-05-17T04:25:43.506Z,29.32
2019-05-17T04:28:13.819Z,28.85
2019-05-17T04:30:43.590Z,29.70
2019-05-17T04:33:13.090Z,29.63
2019-05-17T04:35:43.244Z,29.77
2019-05-17T04:38:12.997Z,29.98
2019-05-17T04:40:43.144Z,29.07
2019-05-17T04:43:13.550Z,29.20
2019-05-17T04:45:43.297Z,30.20
2019-05-17T04:48:13.373Z,29.55
2019-05-17T04:50:43.096Z,29.60
2019-05-17T04:53:13.389Z,28.42
2019-05-17T04:55:43.345Z,29.95
2019-05-17T04:58:13.680Z,32.05
2019-05-17T05:00:43.272Z,32.95
2019-05-17T05:03:12.899Z,33.33
2019-05-17T05:05:42.930Z,30.30
2019-05-17T05:08:12.982Z,30.85
2019-05-17T05:10:44.189Z,31.42
2019-05-17T05:13:13.578Z,31.50
2019-05-17T05:15:44.593Z,29.75
2019-05-17T05:18:14.258Z,29.98
2019-05-17T05:20:44.069Z,30.90
2019-05-17T05:23:13.654Z,30.85
2019-05-17T05:25:43.456Z,29.90
2019-05-17T05:28:12.938Z,29.92
2019-05-17T05:30:43.728Z,31.37
2019-05-17T05:33:13.258Z,29.75
2019-05-17T05:35:42.903Z,28.47
2019-05-17T05:38:13.275Z,29.40
2019-05-17T05:40:43.829Z,29.30
2019-05-17T05:43:13.777Z,27.93
2019-05-17T05:45:43.077Z,28.07
2019-05-17T05:48:13.272Z,27.45
2019-05-17T05:50:43.952Z,28.20
2019-05-17T05:53:13.422Z,27.67
2019-05-17T05:55:43.319Z,28.12
2019-05-17T05:58:12.986Z,28.55
2019-05-17T06:00:42.942Z,27.15
2019-05-17T06:03:12.542Z,26.90
2019-05-17T06:05:42.562Z,26.68
2019-05-17T06:08:13.195Z,25.45
2019-05-17T06:10:43.026Z,26.93
2019-05-17T06:13:13.461Z,26.85
2019-05-17T06:15:43.198Z,26.33
2019-05-17T06:18:12.765Z,27.48
2019-05-17T06:20:42.224Z,26.95
2019-05-17T06:23:12.179Z,26.40
2019-05-17T06:25:43.449Z,27.62
2019-05-17T06:28:12.848Z,27.90
2019-05-17T06:30:43.114Z,27.05
2019-05-17T06:33:26.653Z,29.02
2019-05-17T06:35:43.614Z,27.07
2019-05-17T06:38:13.189Z,28.55
2019-05-17T06:40:42.461Z,28.45
2019-05-17T06:43:13.145Z,28.25
2019-05-17T06:45:42.654Z,27.32
2019-05-17T06:48:12.091Z,27.25
2019-05-17T06:50:42.824Z,30.12
2019-05-17T06:53:12.767Z,29.18
2019-05-17T06:55:42.611Z,29.77
2019-05-17T06:58:12.409Z,26.25
2019-05-17T07:00:41.858Z,31.27
2019-05-17T07:03:12.694Z,30.70
2019-05-17T07:05:46.347Z,29.37
2019-05-17T07:08:15.678Z,29.12
2019-05-17T07:10:44.966Z,26.75
2019-05-17T07:13:14.375Z,27.77
2019-05-17T07:15:47.814Z,29.57
2019-05-17T07:18:14.663Z,28.15
2019-05-17T07:20:43.953Z,31.60
2019-05-17T07:23:13.248Z,30.10
2019-05-17T07:25:42.557Z,30.75
2019-05-17T07:28:11.867Z,31.35
2019-05-17T07:30:41.193Z,28.55
2019-05-17T07:33:10.544Z,29.23
2019-05-17T07:35:40.069Z,28.67
2019-05-17T07:38:10.614Z,28.42
2019-05-17T07:40:40.250Z,28.75
2019-05-17T07:43:14.372Z,28.45
2019-05-17T07:45:41.129Z,27.87
2019-05-17T07:48:10.518Z,28.92
2019-05-17T07:50:40.116Z,30.85
2019-05-17T07:53:10.383Z,29.90
2019-05-17T07:55:40.187Z,33.35
2019-05-17T07:58:10.220Z,31.48
2019-05-17T08:00:40.318Z,29.67
2019-05-17T08:03:12.995Z,29.80
2019-05-17T08:05:40.827Z,30.80
2019-05-17T08:08:10.427Z,29.90
2019-05-17T08:10:41.289Z,28.05
2019-05-17T08:13:25.156Z,28.35
2019-05-17T08:15:41.698Z,26.80
2019-05-17T08:18:11.224Z,25.57
2019-05-17T08:20:40.675Z,26.17
2019-05-17T08:23:11.531Z,24.92
2019-05-17T08:25:52.143Z,22.77
2019-05-17T08:28:11.941Z,21.77
2019-05-17T08:30:41.475Z,22.37
2019-05-17T08:33:11.788Z,21.27
2019-05-17T08:35:41.116Z,22.25
2019-05-17T08:38:10.750Z,22.55
2019-05-17T08:40:40.727Z,21.75
2019-05-17T08:43:11.238Z,21.25
2019-05-17T08:45:41.049Z,21.12
2019-05-17T08:48:10.409Z,20.75
2019-05-17T08:50:40.538Z,20.57
2019-05-17T08:53:10.848Z,20.92
2019-05-17T08:55:41.246Z,21.95
2019-05-17T08:58:10.764Z,20.80
2019-05-17T09:00:41.159Z,21.15
2019-05-17T09:03:11.528Z,22.37
2019-05-17T09:05:41.770Z,22.07
2019-05-17T09:08:12.415Z,21.52
2019-05-17T09:10:41.841Z,21.37
2019-05-17T09:13:14.543Z,20.20
2019-05-17T09:15:42.946Z,21.57
2019-05-17T09:18:12.323Z,20.65
2019-05-17T09:20:41.613Z,19.92
2019-05-17T09:23:12.002Z,19.37
2019-05-17T09:25:41.307Z,18.70
2019-05-17T09:28:11.378Z,19.57
2019-05-17T09:30:40.855Z,17.52
2019-05-17T09:33:11.285Z,16.32
2019-05-17T09:35:41.200Z,15.50
2019-05-17T09:38:11.026Z,16.77
2019-05-17T09:40:40.545Z,15.78
2019-05-17T09:43:10.515Z,15.72
2019-05-17T09:45:40.736Z,15.53
2019-05-17T09:48:10.693Z,14.63
2019-05-17T09:50:40.280Z,15.25
2019-05-17T09:53:10.749Z,14.90
2019-05-17T09:55:40.533Z,14.80
2019-05-17T09:58:10.904Z,14.98
2019-05-17T10:00:40.235Z,14.83
2019-05-17T10:03:09.967Z,14.25
2019-05-17T10:05:40.569Z,15.10
2019-05-17T10:08:11.036Z,13.85
2019-05-17T10:10:40.559Z,14.80
2019-05-17T10:13:10.999Z,14.23
2019-05-17T10:15:41.007Z,13.78
2019-05-17T10:18:11.568Z,13.60
2019-05-17T10:20:40.876Z,13.70
2019-05-17T10:23:11.227Z,13.72
2019-05-17T10:25:40.585Z,13.22
2019-05-17T10:28:10.266Z,13.10
2019-05-17T10:30:40.119Z,13.83
2019-05-17T10:33:10.162Z,13.65
2019-05-17T10:35:40.573Z,13.43
2019-05-17T10:38:10.633Z,13.43
2019-05-17T10:40:41.145Z,12.80
2019-05-17T10:43:10.612Z,12.15
2019-05-17T10:45:40.401Z,12.75
2019-05-17T10:48:10.488Z,12.73
2019-05-17T10:50:40.724Z,12.80
2019-05-17T10:53:10.473Z,12.35
2019-05-17T10:55:40.250Z,12.75
2019-05-17T10:58:10.172Z,13.40
2019-05-17T11:00:41.474Z,14.33
2019-05-17T11:03:11.271Z,13.48
2019-05-17T11:05:40.602Z,13.95
2019-05-17T11:08:10.795Z,13.78
2019-05-17T11:10:40.315Z,16.50
2019-05-17T11:13:11.168Z,15.95
2019-05-17T11:15:41.541Z,14.68
2019-05-17T11:18:10.948Z,15.03
2019-05-17T11:20:40.254Z,14.80
2019-05-17T11:23:09.550Z,15.13
2019-05-17T11:25:44.922Z,14.50
2019-05-17T11:28:09.881Z,15.05
2019-05-17T11:30:39.195Z,14.90
2019-05-17T11:33:08.572Z,17.67
2019-05-17T11:35:37.889Z,16.02
2019-05-17T11:38:07.182Z,16.48
2019-05-17T11:40:36.628Z,16.17
2019-05-17T11:43:05.925Z,16.20
2019-05-17T11:45:35.248Z,15.63
2019-05-17T11:48:04.529Z,16.97
2019-05-17T11:50:33.826Z,17.42
2019-05-17T11:53:03.122Z,17.20
2019-05-17T11:55:32.441Z,15.75
2019-05-17T11:58:01.726Z,17.98
2019-05-17T12:00:31.541Z,18.95
2019-05-17T12:03:00.911Z,17.30
2019-05-17T12:05:30.409Z,16.67
2019-05-17T12:08:00.874Z,16.00
2019-05-17T12:10:31.475Z,16.52
2019-05-17T12:13:00.891Z,18.87
2019-05-17T12:15:44.492Z,17.02
2019-05-17T12:18:02.252Z,17.15
2019-05-17T12:20:31.576Z,17.20
2019-05-17T12:23:00.863Z,16.87
2019-05-17T12:25:30.170Z,16.95
2019-05-17T12:27:59.469Z,17.50
2019-05-17T12:30:28.875Z,17.40
2019-05-17T12:32:58.171Z,18.80
2019-05-17T12:35:27.489Z,17.92
2019-05-17T12:37:56.772Z,21.70
2019-05-17T12:40:27.649Z,18.75
2019-05-17T12:42:56.963Z,19.07
2019-05-17T12:45:26.284Z,17.85
2019-05-17T12:47:55.633Z,18.05
2019-05-17T12:50:24.935Z,18.10
2019-05-17T12:52:54.239Z,18.05
2019-05-17T12:55:23.559Z,18.00
2019-05-17T12:57:52.948Z,16.97
2019-05-17T13:00:22.792Z,17.30
2019-05-17T13:02:52.109Z,17.73
2019-05-17T13:05:22.156Z,18.00
2019-05-17T13:07:51.455Z,18.62
2019-05-17T13:10:20.838Z,18.85
2019-05-17T13:12:50.116Z,19.55
2019-05-17T13:15:19.504Z,19.52
2019-05-17T13:17:49.018Z,19.87
2019-05-17T13:20:18.515Z,20.27
2019-05-17T13:22:48.560Z,20.02
2019-05-17T13:25:18.014Z,19.98
2019-05-17T13:27:47.335Z,21.15
2019-05-17T13:30:17.086Z,21.70
2019-05-17T13:32:46.391Z,22.25
2019-05-17T13:35:16.913Z,23.77
2019-05-17T13:37:46.312Z,24.30
2019-05-17T13:40:15.888Z,25.08
2019-05-17T13:42:45.224Z,23.00
2019-05-17T13:45:14.879Z,22.87
2019-05-17T13:47:44.258Z,21.75
2019-05-17T13:50:14.869Z,22.45
2019-05-17T13:52:44.202Z,22.62
2019-05-17T13:55:14.814Z,22.62
2019-05-17T13:57:44.128Z,23.55
2019-05-17T14:00:13.759Z,22.77
2019-05-17T14:02:43.127Z,22.95
2019-05-17T14:05:12.574Z,25.45
2019-05-17T14:07:41.957Z,24.52
2019-05-17T14:10:26.119Z,26.33
2019-05-17T14:12:45.041Z,25.95
2019-05-17T14:15:14.499Z,26.62
2019-05-17T14:17:43.777Z,27.05
2019-05-17T14:20:13.167Z,27.05
2019-05-17T14:22:42.450Z,27.50
2019-05-17T14:25:13.359Z,26.77
2019-05-17T14:27:42.664Z,23.00
2019-05-17T14:30:12.295Z,19.52
2019-05-17T14:32:41.691Z,19.23
2019-05-17T14:35:11.296Z,19.60
2019-05-17T14:37:40.726Z,20.15
2019-05-17T14:40:10.117Z,20.85
2019-05-17T14:42:39.425Z,22.70
2019-05-17T14:45:08.950Z,21.65
2019-05-17T14:47:38.393Z,19.70
2019-05-17T14:50:07.866Z,20.00
2019-05-17T14:52:37.155Z,20.20
2019-05-17T14:55:07.907Z,21.07
2019-05-17T14:57:37.255Z,20.45
2019-05-17T15:00:07.645Z,21.30
2019-05-17T15:02:36.910Z,20.05
2019-05-17T15:05:06.881Z,20.57
2019-05-17T15:07:36.248Z,19.45
2019-05-17T15:10:07.445Z,20.43
2019-05-17T15:12:36.727Z,21.25
2019-05-17T15:15:07.687Z,20.27
2019-05-17T15:17:37.066Z,20.12
2019-05-17T15:20:06.849Z,20.23
2019-05-17T15:22:36.207Z,20.50
2019-05-17T15:25:05.858Z,20.75
2019-05-17T15:27:35.154Z,21.37
2019-05-17T15:30:06.343Z,22.40
2019-05-17T15:32:35.627Z,22.55
2019-05-17T15:35:06.684Z,22.15
2019-05-17T15:37:36.033Z,22.75
2019-05-17T15:40:06.814Z,22.82
2019-05-17T15:42:44.030Z,24.23
2019-05-17T15:45:07.454Z,24.23
2019-05-17T15:47:36.734Z,25.90
2019-05-17T15:50:07.172Z,25.15
2019-05-17T15:52:36.535Z,25.72
2019-05-17T15:55:08.783Z,25.75
2019-05-17T15:57:38.085Z,27.17
2019-05-17T16:00:07.889Z,26.45
2019-05-17T16:02:37.242Z,28.40
2019-05-17T16:05:06.805Z,28.45
2019-05-17T16:07:36.090Z,29.30
2019-05-17T16:10:08.855Z,32.67
2019-05-17T16:12:39.315Z,32.28
2019-05-17T16:15:09.029Z,35.43
2019-05-17T16:17:38.315Z,38.05
2019-05-17T16:20:16.546Z,41.15
2019-05-17T16:22:42.107Z,43.40
2019-05-17T16:25:11.630Z,42.83
2019-05-17T16:27:40.916Z,41.85
2019-05-17T16:30:10.594Z,42.88
2019-05-17T16:32:39.889Z,40.85
2019-05-17T16:35:11.023Z,36.83
2019-05-17T16:37:40.344Z,35.65
2019-05-17T16:40:10.115Z,34.95
2019-05-17T16:42:39.416Z,33.70
2019-05-17T16:45:09.166Z,33.02
2019-05-17T16:47:38.467Z,31.15
2019-05-17T16:50:08.354Z,31.97
2019-05-17T16:52:37.642Z,31.50
2019-05-17T16:55:08.204Z,31.52
2019-05-17T16:57:37.757Z,31.80
2019-05-17T17:00:27.930Z,31.90
2019-05-17T17:02:57.384Z,32.53
2019-05-17T17:05:26.688Z,33.13
2019-05-17T17:07:56.242Z,33.63
2019-05-17T17:10:25.621Z,34.18
2019-05-17T17:12:54.941Z,34.25
2019-05-17T17:15:24.305Z,32.73
2019-05-17T17:17:53.675Z,33.08
2019-05-17T17:20:23.445Z,33.20
2019-05-17T17:22:52.977Z,33.90
2019-05-17T17:25:23.557Z,33.88
2019-05-17T17:27:52.842Z,33.58
2019-05-17T17:30:22.221Z,33.00
2019-05-17T17:32:51.537Z,34.18
2019-05-17T17:35:20.834Z,33.92
2019-05-17T17:37:50.181Z,35.30
2019-05-17T17:40:21.132Z,36.38
2019-05-17T17:42:51.188Z,36.88
2019-05-17T17:45:23.405Z,36.28
2019-05-17T17:47:52.714Z,37.28
2019-05-17T17:50:22.152Z,36.00
2019-05-17T17:52:52.060Z,37.60
2019-05-17T17:55:21.551Z,35.92
2019-05-17T17:57:50.996Z,37.20
2019-05-17T18:00:21.122Z,37.88
2019-05-17T18:02:51.616Z,38.63
2019-05-17T18:05:20.987Z,38.48
2019-05-17T18:07:50.540Z,39.10
2019-05-17T18:10:33.551Z,38.50
2019-05-17T18:15:34.469Z,39.75
2019-05-17T18:18:03.875Z,40.08
2019-05-17T18:20:34.116Z,41.55
2019-05-17T18:23:03.420Z,40.30
2019-05-17T18:25:32.756Z,40.23
2019-05-17T18:28:02.083Z,40.48
2019-05-17T18:30:31.445Z,40.15
2019-05-17T18:33:00.793Z,40.05
2019-05-17T18:35:30.115Z,40.23
2019-05-17T18:37:59.423Z,39.48
2019-05-17T18:40:28.718Z,39.27
2019-05-17T18:42:58.039Z,37.28
2019-05-17T18:45:27.415Z,35.13
2019-05-17T18:47:58.637Z,34.48
2019-05-17T18:50:28.358Z,33.02
2019-05-17T18:52:57.846Z,33.05
2019-05-17T18:55:27.127Z,33.13
2019-05-17T18:57:56.532Z,32.53
2019-05-17T19:00:25.934Z,32.78
2019-05-17T19:02:55.263Z,31.80
2019-05-17T19:05:24.589Z,32.15
2019-05-17T19:07:55.024Z,33.38
2019-05-17T19:10:24.662Z,32.45
2019-05-17T19:12:53.976Z,32.93
2019-05-17T19:15:23.471Z,34.45
2019-05-17T19:17:52.810Z,38.05
2019-05-17T19:20:22.322Z,41.53
2019-05-17T19:22:51.765Z,42.25
2019-05-17T19:25:21.325Z,37.25
2019-05-17T19:27:50.691Z,39.80
2019-05-17T19:30:20.166Z,38.42
2019-05-17T19:32:49.456Z,38.95
2019-05-17T19:35:18.961Z,36.20
2019-05-17T19:37:48.261Z,35.10
2019-05-17T19:40:17.639Z,34.20
2019-05-17T19:42:46.944Z,34.38
2019-05-17T19:45:16.847Z,32.05
2019-05-17T19:47:46.189Z,32.25
2019-05-17T19:50:15.761Z,32.58
2019-05-17T19:52:45.086Z,31.15
2019-05-17T19:55:15.710Z,32.88
2019-05-17T19:57:45.037Z,32.50
2019-05-17T20:00:15.357Z,32.03
2019-05-17T20:02:45.100Z,29.72
2019-05-17T20:05:14.623Z,29.95
2019-05-17T20:07:43.968Z,31.40
2019-05-17T20:10:13.488Z,30.75
2019-05-17T20:12:42.865Z,31.97
2019-05-17T20:15:17.938Z,32.83
2019-05-17T20:17:43.763Z,30.62
2019-05-17T20:20:13.557Z,32.73
2019-05-17T20:22:42.878Z,32.30
2019-05-17T20:25:12.720Z,28.87
2019-05-17T20:27:42.026Z,30.50
2019-05-17T20:30:12.056Z,29.77
2019-05-17T20:32:41.356Z,30.17
2019-05-17T20:35:10.913Z,31.45
2019-05-17T20:37:40.286Z,31.93
2019-05-17T20:40:10.130Z,33.67
2019-05-17T20:42:39.728Z,32.42
2019-05-17T20:45:09.949Z,32.58
2019-05-17T20:47:39.335Z,33.35
2019-05-17T20:50:09.367Z,32.45
2019-05-17T20:52:38.730Z,32.98
2019-05-17T20:55:08.276Z,33.38
2019-05-17T20:57:37.606Z,32.48
2019-05-17T21:00:08.750Z,34.18
2019-05-17T21:02:38.163Z,34.00
2019-05-17T21:05:07.704Z,35.55
2019-05-17T21:07:37.058Z,34.18
2019-05-17T21:10:06.524Z,32.73
2019-05-17T21:12:35.835Z,34.15
2019-05-17T21:15:06.848Z,33.08
2019-05-17T21:17:36.132Z,34.27
2019-05-17T21:20:06.784Z,33.60
2019-05-17T21:22:36.241Z,33.45
2019-05-17T21:25:06.381Z,33.33
2019-05-17T21:27:35.752Z,34.95
2019-05-17T21:30:06.905Z,34.63
2019-05-17T21:32:36.252Z,34.40
2019-05-17T21:35:05.907Z,35.00
2019-05-17T21:37:35.800Z,34.83
2019-05-17T21:40:10.687Z,38.00
2019-05-17T21:42:39.967Z,38.23
2019-05-17T21:45:10.440Z,39.00
2019-05-17T21:47:39.733Z,36.88
2019-05-17T21:50:10.551Z,38.15
2019-05-17T21:52:39.834Z,37.90
2019-05-17T21:55:09.524Z,37.75
2019-05-17T21:57:38.807Z,37.70
2019-05-17T22:00:10.918Z,38.02
2019-05-17T22:02:41.814Z,38.42
2019-05-17T22:05:11.473Z,37.88
2019-05-17T22:07:41.853Z,38.85
2019-05-17T22:10:11.433Z,40.23
2019-05-17T22:12:40.819Z,40.70
2019-05-17T22:15:10.292Z,40.03
2019-05-17T22:17:39.595Z,40.33
2019-05-17T22:20:08.946Z,40.70
2019-05-17T22:22:38.257Z,40.33
2019-05-17T22:25:07.729Z,40.35
2019-05-17T22:27:37.064Z,41.68
2019-05-17T22:30:07.321Z,41.00
2019-05-17T22:32:37.599Z,40.60
2019-05-17T22:35:07.059Z,39.60
2019-05-17T22:37:36.358Z,40.70
2019-05-17T22:40:08.881Z,41.33
2019-05-17T22:42:39.513Z,43.02
2019-05-17T22:45:09.478Z,38.10
2019-05-17T22:47:38.773Z,41.02
2019-05-17T22:50:08.482Z,43.65
2019-05-17T22:52:37.809Z,40.38
2019-05-17T22:55:07.498Z,43.17
2019-05-17T22:57:36.821Z,45.90
2019-05-17T23:00:08.004Z,45.88
2019-05-17T23:05:07.414Z,44.85
2019-05-17T23:07:36.721Z,46.15
2019-05-17T23:10:07.651Z,41.80
2019-05-17T23:12:36.929Z,43.87
2019-05-17T23:15:08.026Z,42.83
2019-05-17T23:17:37.389Z,34.10
2019-05-17T23:20:07.253Z,34.18
2019-05-17T23:22:36.533Z,30.97
2019-05-17T23:25:08.730Z,36.45
2019-05-17T23:27:38.009Z,36.38
2019-05-17T23:30:07.586Z,35.43
2019-05-17T23:32:36.855Z,23.00
2019-05-17T23:35:07.320Z,29.27
2019-05-17T23:37:36.575Z,31.20
2019-05-17T23:40:06.759Z,31.12
2019-05-17T23:42:36.030Z,34.35
2019-05-17T23:45:08.453Z,38.58
2019-05-17T23:47:37.735Z,33.90
2019-05-17T23:50:08.879Z,32.53
2019-05-17T23:52:38.150Z,30.40
2019-05-17T23:55:08.489Z,35.68
2019-05-17T23:57:37.769Z,38.08
